Time;durP1;ratioP1;P1;durP2;ratioP2;P2;SDS_P1;SDS_P2;PMS_P1;PMS_P2;Temp;Humidity;BMP_temperature;BMP_pressure;BME280_temperature;BME280_humidity;BME280_pressure;Samples;Min_cycle;Max_cycle;Signal;HPM_P1;HPM_P2
2022/01/04 00:01:36;;;;;;;34.25;10.63;;;8.30;99.90;;;;;;4939802;28;20037;-83
2022/01/04 00:04:01;;;;;;;33.95;9.82;;;8.40;99.90;;;;;;4946480;28;20082;-86
2022/01/04 00:06:27;;;;;;;30.60;9.88;;;8.40;99.90;;;;;;4959444;28;22980;-82
2022/01/04 00:08:59;;;;;;;32.83;10.45;;;8.40;99.90;;;;;;4963492;28;20038;-84
2022/01/04 00:11:42;;;;;;;36.97;10.25;;;8.40;99.90;;;;;;4950675;28;20138;-84
2022/01/04 00:14:08;;;;;;;;;;;8.40;99.90;;;;;;4957395;28;20064;-84
2022/01/04 00:16:36;;;;;;;36.67;9.70;;;8.40;99.90;;;;;;4983039;28;20376;-83
2022/01/04 00:19:02;;;;;;;39.03;10.23;;;8.40;99.90;;;;;;4957471;28;20412;-84
2022/01/04 00:21:28;;;;;;;32.15;10.25;;;8.40;99.90;;;;;;4980743;28;20171;-84
2022/01/04 00:23:54;;;;;;;38.10;9.85;;;8.40;99.90;;;;;;4955565;28;20042;-84
2022/01/04 00:26:23;;;;;;;31.08;8.73;;;8.40;99.90;;;;;;4952911;28;20041;-84
2022/01/04 00:28:48;;;;;;;34.83;8.60;;;8.50;99.90;;;;;;4955398;28;20537;-83
2022/01/04 00:31:14;;;;;;;32.97;8.05;;;8.50;99.90;;;;;;4940212;28;20559;-83
2022/01/04 00:33:40;;;;;;;33.10;8.70;;;8.50;99.90;;;;;;4960585;28;20046;-82
2022/01/04 00:36:06;;;;;;;25.92;8.52;;;8.50;99.90;;;;;;4957612;28;20041;-84
2022/01/04 00:38:32;;;;;;;27.17;8.60;;;8.50;99.90;;;;;;4939238;28;20121;-84
2022/01/04 00:40:58;;;;;;;24.10;8.02;;;8.50;99.90;;;;;;5006245;28;20040;-86
2022/01/04 00:43:24;;;;;;;30.13;8.10;;;8.60;99.90;;;;;;4937009;28;20069;-85
2022/01/04 00:45:52;;;;;;;35.58;8.00;;;8.60;99.90;;;;;;4957562;28;20044;-84
2022/01/04 00:50:43;;;;;;;32.55;9.00;;;8.60;99.90;;;;;;4977895;28;20046;-84
2022/01/04 00:53:09;;;;;;;25.05;7.93;;;8.60;99.90;;;;;;4984782;28;20048;-83
2022/01/04 00:55:36;;;;;;;29.83;8.05;;;8.60;99.90;;;;;;5001282;28;20077;-85
2022/01/04 00:58:03;;;;;;;32.97;8.68;;;8.50;99.90;;;;;;4987014;28;20757;-84
2022/01/04 01:00:29;;;;;;;36.83;8.85;;;8.50;99.90;;;;;;4987227;28;20053;-85
2022/01/04 01:02:55;;;;;;;34.10;9.20;;;8.50;99.90;;;;;;4954789;28;20042;-85
2022/01/04 01:05:24;;;;;;;35.92;9.00;;;8.40;99.90;;;;;;4982252;28;20038;-84
2022/01/04 01:07:51;;;;;;;36.00;8.75;;;8.50;99.90;;;;;;4957756;28;20096;-83
2022/01/04 01:12:55;;;;;;;34.00;9.30;;;8.40;99.90;;;;;;4981166;28;20050;-84
2022/01/04 01:15:21;;;;;;;26.33;8.45;;;8.40;99.90;;;;;;4953751;28;20100;-84
2022/01/04 01:17:47;;;;;;;28.80;9.23;;;8.40;99.90;;;;;;4964966;28;20041;-84
2022/01/04 01:20:14;;;;;;;30.95;8.65;;;8.40;99.90;;;;;;4998550;28;21657;-85
2022/01/04 01:22:40;;;;;;;32.25;9.95;;;8.40;99.90;;;;;;4937260;28;20053;-84
2022/01/04 01:25:08;;;;;;;27.00;9.63;;;8.40;99.90;;;;;;4969341;28;20061;-84
2022/01/04 01:27:34;;;;;;;23.67;8.50;;;8.30;99.90;;;;;;4959905;28;20045;-83
2022/01/04 01:30:00;;;;;;;31.13;8.90;;;8.30;99.90;;;;;;4953817;28;20053;-85
2022/01/04 01:32:25;;;;;;;28.92;8.48;;;8.30;99.90;;;;;;4955192;28;20531;-84
2022/01/04 01:34:51;;;;;;;36.28;10.25;;;8.30;99.90;;;;;;4956699;28;20041;-83
2022/01/04 01:37:20;;;;;;;26.38;8.85;;;8.30;99.90;;;;;;4951829;28;20449;-85
2022/01/04 01:39:47;;;;;;;31.23;8.60;;;8.30;99.90;;;;;;4949520;28;20241;-84
2022/01/04 01:42:20;;;;;;;30.30;9.70;;;8.40;99.90;;;;;;4973002;28;20057;-85
2022/01/04 01:44:46;;;;;;;35.30;9.70;;;8.30;99.90;;;;;;4973055;28;20310;-84
2022/01/04 01:47:15;;;;;;;36.65;10.32;;;8.40;99.90;;;;;;4986480;28;20050;-84
2022/01/04 01:49:41;;;;;;;30.52;10.52;;;8.40;99.90;;;;;;4979865;28;21014;-84
2022/01/04 01:52:13;;;;;;;29.58;10.77;;;8.40;99.90;;;;;;4988407;28;20069;-83
2022/01/04 01:54:39;;;;;;;;;;;8.40;99.90;;;;;;4980927;28;21918;-86
2022/01/04 01:57:05;;;;;;;33.42;11.23;;;8.40;99.90;;;;;;4950995;28;19925;-84
2022/01/04 01:59:33;;;;;;;27.55;9.82;;;8.40;99.90;;;;;;4969588;28;20421;-85
2022/01/04 02:01:59;;;;;;;38.80;10.85;;;8.50;99.90;;;;;;4968258;28;20116;-83
2022/01/04 02:04:25;;;;;;;32.15;10.57;;;8.50;99.90;;;;;;4957372;28;20493;-85
2022/01/04 02:06:51;;;;;;;31.85;10.60;;;8.50;99.90;;;;;;4952866;28;20582;-84
2022/01/04 02:09:16;;;;;;;33.60;10.70;;;8.50;99.90;;;;;;4961898;28;20080;-84
2022/01/04 02:11:43;;;;;;;33.80;12.57;;;8.50;99.90;;;;;;4951569;28;20464;-84
2022/01/04 02:14:09;;;;;;;38.55;11.80;;;8.50;99.90;;;;;;4966616;28;20072;-85
2022/01/04 02:16:35;;;;;;;38.42;11.65;;;8.50;99.90;;;;;;4941962;28;20046;-84
2022/01/04 02:19:06;;;;;;;36.40;12.13;;;8.50;99.90;;;;;;4944677;28;20492;-85
2022/01/04 02:21:34;;;;;;;33.92;11.55;;;8.50;99.90;;;;;;4970188;28;20037;-84
2022/01/04 02:24:01;;;;;;;38.83;11.93;;;8.50;99.90;;;;;;4951171;28;20041;-84
2022/01/04 02:26:30;;;;;;;26.90;10.20;;;8.50;99.90;;;;;;4973662;28;20185;-84
2022/01/04 02:28:56;;;;;;;36.17;11.80;;;8.50;99.90;;;;;;4989494;28;20046;-84
2022/01/04 02:31:22;;;;;;;30.73;10.65;;;8.60;99.90;;;;;;4951190;28;20056;-85
2022/01/04 02:33:47;;;;;;;35.95;11.85;;;8.50;99.90;;;;;;4958725;28;20188;-85
2022/01/04 02:36:13;;;;;;;33.08;10.60;;;8.50;99.90;;;;;;4950949;28;20057;-85
2022/01/04 02:38:39;;;;;;;27.67;11.90;;;8.50;99.90;;;;;;4953795;28;20074;-84
2022/01/04 02:41:05;;;;;;;36.78;10.75;;;8.50;99.90;;;;;;4933872;28;20103;-85
2022/01/04 02:43:30;;;;;;;32.85;11.00;;;8.50;99.90;;;;;;4946398;28;20689;-85
2022/01/04 02:45:56;;;;;;;39.78;10.82;;;8.50;99.90;;;;;;4951665;28;20120;-84
2022/01/04 02:48:25;;;;;;;33.65;11.75;;;8.40;99.90;;;;;;4946230;28;20046;-84
2022/01/04 02:50:51;;;;;;;35.30;11.07;;;8.40;99.90;;;;;;4942123;28;20258;-83
2022/01/04 02:53:18;;;;;;;35.40;11.48;;;8.40;99.90;;;;;;4954643;28;20041;-84
2022/01/04 02:55:47;;;;;;;35.20;11.45;;;8.30;99.90;;;;;;4962711;28;20133;-84
2022/01/04 02:58:14;;;;;;;32.45;11.23;;;8.30;99.90;;;;;;4979325;28;20508;-83
2022/01/04 03:00:40;;;;;;;37.20;11.52;;;8.30;99.90;;;;;;4968468;28;20493;-83
2022/01/04 03:03:05;;;;;;;30.90;9.63;;;8.30;99.90;;;;;;4965790;28;20049;-85
2022/01/04 03:05:31;;;;;;;36.50;11.55;;;8.20;99.90;;;;;;4952268;28;20037;-84
2022/01/04 03:07:57;;;;;;;40.83;13.13;;;8.20;99.90;;;;;;4961346;28;20037;-85
2022/01/04 03:10:23;;;;;;;41.95;12.80;;;8.20;99.90;;;;;;4951705;28;20042;-84
2022/01/04 03:12:49;;;;;;;32.50;13.30;;;8.20;99.90;;;;;;4960633;28;20076;-83
2022/01/04 03:15:15;;;;;;;39.30;13.00;;;8.10;99.90;;;;;;4943743;28;20385;-84
2022/01/04 03:17:41;;;;;;;35.55;13.18;;;8.20;99.90;;;;;;4967133;28;20038;-84
2022/01/04 03:20:09;;;;;;;39.08;13.52;;;8.10;99.90;;;;;;4948790;28;20050;-84
2022/01/04 03:22:35;;;;;;;38.08;13.35;;;8.10;99.90;;;;;;4966259;28;20113;-84
2022/01/04 03:25:01;;;;;;;42.40;13.48;;;8.10;99.90;;;;;;4967217;28;20054;-87
2022/01/04 03:27:27;;;;;;;36.08;14.27;;;8.10;99.90;;;;;;4953257;28;21216;-85
2022/01/04 03:29:53;;;;;;;44.00;15.20;;;8.20;99.90;;;;;;4953357;28;20034;-84
2022/01/04 03:32:19;;;;;;;46.63;15.20;;;8.20;99.90;;;;;;4949960;28;20133;-83
2022/01/04 03:34:44;;;;;;;37.85;15.23;;;8.20;99.90;;;;;;4936443;28;20041;-83
2022/01/04 03:37:13;;;;;;;43.35;15.60;;;8.10;99.90;;;;;;4955264;28;21049;-85
2022/01/04 03:39:38;;;;;;;41.38;15.57;;;8.20;99.90;;;;;;4966468;28;20038;-84
2022/01/04 03:42:05;;;;;;;44.75;15.82;;;8.10;99.90;;;;;;4961827;28;20034;-84
2022/01/04 03:44:31;;;;;;;42.97;15.98;;;8.10;99.90;;;;;;4960567;28;20034;-84
2022/01/04 03:46:57;;;;;;;43.08;15.35;;;8.20;99.90;;;;;;4950317;28;20042;-84
2022/01/04 03:49:23;;;;;;;48.63;16.02;;;8.20;99.90;;;;;;4963242;28;20488;-83
2022/01/04 03:51:49;;;;;;;41.45;14.65;;;8.20;99.90;;;;;;4957579;28;20061;-84
2022/01/04 03:54:15;;;;;;;37.80;14.77;;;8.20;99.90;;;;;;4953788;28;20049;-84
2022/01/04 03:56:41;;;;;;;47.35;15.35;;;8.10;99.90;;;;;;4952463;28;20050;-83
2022/01/04 03:59:07;;;;;;;42.60;16.15;;;8.20;99.90;;;;;;4981221;28;20432;-83
2022/01/04 04:01:33;;;;;;;45.58;15.82;;;8.20;99.90;;;;;;4959704;28;20152;-84
2022/01/04 04:03:59;;;;;;;42.65;15.52;;;8.20;99.90;;;;;;4947203;28;20061;-83
2022/01/04 04:06:25;;;;;;;42.03;16.73;;;8.20;99.90;;;;;;4951164;28;20034;-84
2022/01/04 04:08:51;;;;;;;39.28;14.60;;;8.20;99.90;;;;;;4932021;28;20104;-83
2022/01/04 04:11:17;;;;;;;41.05;15.88;;;8.10;99.90;;;;;;4953111;28;20122;-83
2022/01/04 04:13:43;;;;;;;38.40;15.23;;;8.10;99.90;;;;;;4950496;28;20042;-84
2022/01/04 04:16:08;;;;;;;39.22;15.93;;;8.10;99.90;;;;;;4950324;28;20049;-82
2022/01/04 04:18:34;;;;;;;44.13;16.50;;;8.20;99.90;;;;;;4936117;28;21393;-84
2022/01/04 04:21:00;;;;;;;38.22;14.88;;;8.20;99.90;;;;;;4954012;28;20406;-85
2022/01/04 04:23:26;;;;;;;38.63;15.75;;;8.10;99.90;;;;;;4955100;28;20040;-85
2022/01/04 04:25:51;;;;;;;40.45;16.60;;;8.10;99.90;;;;;;4956475;28;20049;-84
2022/01/04 04:28:17;;;;;;;48.75;17.02;;;8.10;99.90;;;;;;4948468;28;20190;-84
2022/01/04 04:30:43;;;;;;;42.13;16.67;;;8.10;99.90;;;;;;4950090;28;20034;-85
2022/01/04 04:33:09;;;;;;;44.60;15.90;;;8.10;99.90;;;;;;4935103;28;22751;-83
2022/01/04 04:35:35;;;;;;;45.03;16.30;;;8.10;99.90;;;;;;4936325;28;22923;-84
2022/01/04 04:38:02;;;;;;;42.80;16.38;;;8.10;99.90;;;;;;4956084;28;20690;-83
2022/01/04 04:40:28;;;;;;;46.08;17.40;;;8.10;99.90;;;;;;4971040;28;20400;-84
2022/01/04 04:42:54;;;;;;;46.15;17.38;;;8.10;99.90;;;;;;4964722;28;20034;-83
2022/01/04 04:45:20;;;;;;;41.25;16.00;;;8.10;99.90;;;;;;4935090;28;20038;-83
2022/01/04 04:47:45;;;;;;;42.17;17.48;;;8.10;99.90;;;;;;4965761;28;20034;-84
2022/01/04 04:50:11;;;;;;;44.95;17.08;;;8.10;99.90;;;;;;4962553;28;20146;-83
2022/01/04 04:52:37;;;;;;;40.90;17.55;;;8.10;99.90;;;;;;4973050;28;20042;-84
2022/01/04 04:55:05;;;;;;;54.08;20.75;;;8.10;99.90;;;;;;4955020;28;20042;-85
2022/01/04 04:57:31;;;;;;;66.78;21.48;;;8.10;99.90;;;;;;4949808;28;20674;-85
2022/01/04 05:00:07;;;;;;;59.20;21.65;;;8.10;99.90;;;;;;4972213;28;20582;-86
2022/01/04 05:06:14;;;;;;;78.75;22.92;;;8.00;99.90;;;;;;4998217;28;20531;-85
2022/01/04 05:08:40;;;;;;;58.90;22.70;;;8.00;99.90;;;;;;4973882;28;20053;-85
2022/01/04 05:11:06;;;;;;;67.95;24.15;;;8.00;99.90;;;;;;4954829;28;20038;-86
2022/01/04 05:13:32;;;;;;;62.35;23.70;;;7.90;99.90;;;;;;4969352;28;20042;-85
2022/01/04 05:15:57;;;;;;;66.90;23.58;;;7.90;99.90;;;;;;4987522;28;20104;-85
2022/01/04 05:18:24;;;;;;;66.47;25.02;;;7.90;99.90;;;;;;4988607;28;20069;-85
2022/01/04 05:20:50;;;;;;;68.30;25.50;;;7.90;99.90;;;;;;4972913;28;20437;-86
2022/01/04 05:23:28;;;;;;;70.35;23.55;;;7.90;99.90;;;;;;4972979;28;20389;-85
2022/01/04 05:25:54;;;;;;;63.10;24.00;;;7.80;99.90;;;;;;4991053;28;20053;-85
2022/01/04 05:28:20;;;;;;;66.60;25.05;;;7.80;99.90;;;;;;4975837;28;20041;-85
2022/01/04 05:30:52;;;;;;;72.53;25.58;;;7.80;99.90;;;;;;4971626;28;20171;-86
2022/01/04 05:33:18;;;;;;;72.38;24.33;;;7.80;99.90;;;;;;4990914;28;20046;-86
2022/01/04 05:35:44;;;;;;;73.22;24.40;;;7.80;99.90;;;;;;4970856;28;20171;-87
2022/01/04 05:38:10;;;;;;;74.15;26.13;;;7.80;99.90;;;;;;4970106;28;20115;-87
2022/01/04 05:40:36;;;;;;;70.45;25.70;;;7.70;99.90;;;;;;4955717;28;20105;-87
2022/01/04 05:43:04;;;;;;;69.65;23.73;;;7.80;99.90;;;;;;4971578;28;20100;-87
2022/01/04 05:45:41;;;;;;;72.95;24.45;;;7.80;99.90;;;;;;4989785;28;20041;-86
2022/01/04 05:48:13;;;;;;;69.28;23.58;;;7.80;99.90;;;;;;4974845;28;20054;-87
2022/01/04 05:50:39;;;;;;;55.95;23.17;;;7.70;99.90;;;;;;4988666;28;20081;-86
2022/01/04 05:53:10;;;;;;;63.53;23.58;;;7.70;99.90;;;;;;4967587;28;20133;-88
2022/01/04 05:55:39;;;;;;;63.92;24.20;;;7.80;99.90;;;;;;4985656;28;20064;-84
2022/01/04 05:58:05;;;;;;;63.92;24.30;;;7.70;99.90;;;;;;4971160;28;20057;-83
2022/01/04 06:00:34;;;;;;;62.17;23.23;;;7.70;99.90;;;;;;4985080;28;20034;-84
2022/01/04 06:03:14;;;;;;;60.88;23.90;;;7.70;99.90;;;;;;4989615;28;20038;-85
2022/01/04 06:05:59;;;;;;;66.18;23.42;;;7.70;99.90;;;;;;4986174;28;20393;-84
2022/01/04 06:08:35;;;;;;;62.70;22.27;;;7.80;99.90;;;;;;4970994;28;20050;-87
2022/01/04 06:11:01;;;;;;;49.78;21.42;;;7.70;99.90;;;;;;4988402;28;20350;-87
2022/01/04 06:16:15;;;;;;;66.00;23.00;;;7.70;99.90;;;;;;4985675;28;20136;-87
2022/01/04 06:18:52;;;;;;;63.05;22.42;;;7.70;99.90;;;;;;4957203;28;20410;-87
2022/01/04 06:21:18;;;;;;;62.95;22.25;;;7.70;99.90;;;;;;4974112;28;20041;-83
2022/01/04 06:23:52;;;;;;;57.83;22.50;;;7.70;99.90;;;;;;4974659;28;20072;-83
2022/01/04 06:26:23;;;;;;;49.58;22.00;;;7.70;99.90;;;;;;4972036;28;20054;-85
2022/01/04 06:28:55;;;;;;;59.75;22.13;;;7.70;99.90;;;;;;4984958;28;20046;-84
2022/01/04 06:31:27;;;;;;;56.47;21.10;;;7.70;99.90;;;;;;4998370;28;20052;-83
2022/01/04 06:33:54;;;;;;;50.13;21.02;;;7.70;99.90;;;;;;4969919;28;20401;-84
2022/01/04 06:36:22;;;;;;;68.70;22.50;;;7.70;99.90;;;;;;4989582;28;20183;-85
2022/01/04 06:38:51;;;;;;;65.35;23.23;;;7.70;99.90;;;;;;4970290;28;20038;-85
2022/01/04 06:41:24;;;;;;;59.67;22.88;;;7.70;99.90;;;;;;4985805;28;20041;-85
2022/01/04 06:43:50;;;;;;;56.28;21.35;;;7.70;99.90;;;;;;4984001;28;20037;-84
2022/01/04 06:46:51;;;;;;;65.97;21.67;;;7.70;99.90;;;;;;4968827;28;20417;-86
2022/01/04 06:49:21;;;;;;;56.40;23.05;;;7.70;99.90;;;;;;4931625;28;20050;-85
2022/01/04 06:51:48;;;;;;;67.55;24.48;;;7.70;99.90;;;;;;4968348;28;20477;-86
2022/01/04 06:54:16;;;;;;;56.92;23.63;;;7.70;99.90;;;;;;4971696;28;20038;-87
2022/01/04 06:56:43;;;;;;;68.55;25.08;;;7.70;99.90;;;;;;5001828;28;20060;-86
2022/01/04 06:59:10;;;;;;;78.55;26.73;;;7.70;99.90;;;;;;4974628;28;20141;-86
2022/01/04 07:01:37;;;;;;;70.05;25.85;;;7.70;99.90;;;;;;4969332;28;20385;-86
2022/01/04 07:04:04;;;;;;;62.95;25.10;;;7.70;99.90;;;;;;4977335;28;20033;-87
2022/01/04 07:06:31;;;;;;;70.40;26.48;;;7.70;99.90;;;;;;4967142;28;20396;-86
2022/01/04 07:09:09;;;;;;;60.08;25.60;;;7.70;99.90;;;;;;4978443;28;20037;-86
2022/01/04 07:11:36;;;;;;;70.43;28.00;;;7.60;99.90;;;;;;5001701;28;20045;-86
2022/01/04 07:14:08;;;;;;;67.22;26.08;;;7.60;99.90;;;;;;4971783;28;20121;-87
2022/01/04 07:16:34;;;;;;;58.47;23.90;;;7.60;99.90;;;;;;4969381;28;20045;-85
2022/01/04 07:19:00;;;;;;;67.25;25.83;;;7.60;99.90;;;;;;4987146;28;20049;-85
2022/01/04 07:21:26;;;;;;;68.82;25.10;;;7.60;99.90;;;;;;4987099;28;20049;-87
2022/01/04 07:23:55;;;;;;;69.93;27.33;;;7.60;99.90;;;;;;4984244;28;20481;-86
2022/01/04 07:26:24;;;;;;;78.00;29.02;;;7.60;99.90;;;;;;4968839;28;20038;-87
2022/01/04 07:28:54;;;;;;;89.28;31.35;;;7.60;99.90;;;;;;4969405;28;20035;-87
2022/01/04 07:31:23;;;;;;;84.47;30.33;;;7.60;99.90;;;;;;4964359;28;20046;-86
2022/01/04 07:34:12;;;;;;;71.88;27.45;;;7.60;99.90;;;;;;4982043;28;20046;-86
2022/01/04 07:36:42;;;;;;;78.32;31.33;;;7.60;99.90;;;;;;4986170;28;20041;-86
2022/01/04 07:39:08;;;;;;;73.32;28.98;;;7.70;99.90;;;;;;4996797;28;20069;-87
2022/01/04 07:41:44;;;;;;;51.97;22.50;;;7.60;99.90;;;;;;4965067;28;20485;-85
2022/01/04 07:44:10;;;;;;;57.28;26.00;;;7.70;99.90;;;;;;4953599;28;20062;-87
2022/01/04 07:46:36;;;;;;;73.50;27.33;;;7.70;99.90;;;;;;4983000;28;20046;-85
2022/01/04 07:49:02;;;;;;;55.70;26.15;;;7.70;99.90;;;;;;4960380;28;20057;-85
2022/01/04 07:51:28;;;;;;;70.15;26.83;;;7.70;99.90;;;;;;4988109;28;20381;-86
2022/01/04 07:53:54;;;;;;;73.78;26.40;;;7.70;99.90;;;;;;4970870;28;20460;-87
2022/01/04 07:56:20;;;;;;;65.70;27.52;;;7.70;99.90;;;;;;4973724;28;20057;-86
2022/01/04 07:58:46;;;;;;;68.45;27.95;;;7.70;99.90;;;;;;4975235;28;20050;-85
2022/01/04 08:01:14;;;;;;;82.93;28.52;;;7.70;99.90;;;;;;4973653;28;20595;-86
2022/01/04 08:03:40;;;;;;;67.53;27.50;;;7.60;99.90;;;;;;4985120;28;20040;-87
2022/01/04 08:06:26;;;;;;;75.43;27.60;;;7.60;99.90;;;;;;4970931;28;20042;-88
2022/01/04 08:08:55;;;;;;;72.93;27.13;;;7.60;99.90;;;;;;4963007;28;20058;-87
2022/01/04 08:11:21;;;;;;;79.00;28.63;;;7.60;99.90;;;;;;4978177;28;20081;-87
2022/01/04 08:13:47;;;;;;;70.50;28.05;;;7.70;99.90;;;;;;4962887;28;20045;-85
2022/01/04 08:16:35;;;;;;;71.53;27.98;;;7.70;99.90;;;;;;4975129;28;20598;-86
2022/01/04 08:19:08;;;;;;;68.65;28.08;;;7.70;99.90;;;;;;4974092;28;20042;-86
2022/01/04 08:21:46;;;;;;;68.93;28.17;;;7.70;99.90;;;;;;4974554;28;20041;-87
2022/01/04 08:24:15;;;;;;;85.72;29.50;;;7.70;99.90;;;;;;4979498;28;20037;-87
2022/01/04 08:26:41;;;;;;;71.63;27.52;;;7.70;99.90;;;;;;4977770;28;20482;-86
2022/01/04 08:29:07;;;;;;;69.53;28.13;;;7.60;99.90;;;;;;4974736;28;20160;-87
2022/01/04 08:31:39;;;;;;;70.82;28.80;;;7.70;99.90;;;;;;4971206;28;20037;-87
2022/01/04 08:34:05;;;;;;;71.95;29.45;;;7.60;99.90;;;;;;4978769;28;20100;-86
2022/01/04 08:36:31;;;;;;;78.90;27.98;;;7.70;99.90;;;;;;4939159;28;20302;-85
2022/01/04 08:38:57;;;;;;;74.95;28.75;;;7.60;99.90;;;;;;4978736;28;20034;-85
2022/01/04 08:41:31;;;;;;;68.55;28.35;;;7.70;99.90;;;;;;4963094;28;20369;-86
2022/01/04 08:43:57;;;;;;;69.50;28.20;;;7.70;99.90;;;;;;4960124;28;20119;-85
2022/01/04 08:46:26;;;;;;;75.32;29.52;;;7.60;99.90;;;;;;4980421;28;20717;-85
2022/01/04 08:48:55;;;;;;;63.25;26.10;;;7.60;99.90;;;;;;4946881;28;20062;-86
2022/01/04 08:51:23;;;;;;;65.77;27.33;;;7.70;99.90;;;;;;4995236;28;20076;-85
2022/01/04 08:53:49;;;;;;;66.53;27.05;;;7.70;99.90;;;;;;4949563;28;20491;-87
2022/01/04 08:56:18;;;;;;;63.25;27.38;;;7.60;99.90;;;;;;4962206;28;20038;-86
2022/01/04 08:58:44;;;;;;;63.95;27.75;;;7.60;99.90;;;;;;4979599;28;20108;-85
2022/01/04 09:01:09;;;;;;;78.85;28.42;;;7.70;99.90;;;;;;4948330;28;20598;-85
2022/01/04 09:03:35;;;;;;;85.20;29.23;;;7.60;99.90;;;;;;4947939;28;20048;-86
2022/01/04 09:06:01;;;;;;;85.32;27.88;;;7.70;99.90;;;;;;4948310;28;20038;-85
2022/01/04 09:08:30;;;;;;;39.17;14.55;;;7.70;99.90;;;;;;4960125;28;20100;-86
2022/01/04 09:10:55;;;;;;;40.38;17.02;;;7.60;99.90;;;;;;4980243;28;20049;-85
2022/01/04 09:13:31;;;;;;;22.08;8.57;;;7.60;99.90;;;;;;4945728;28;20049;-88
2022/01/04 09:18:43;;;;;;;28.80;7.35;;;7.50;99.90;;;;;;4969549;28;20065;-87
2022/01/04 09:18:51;;;;;;;23.10;8.60;;;7.40;99.90;;;;;;4971728;28;20717;-87
2022/01/04 09:21:23;;;;;;;12.38;5.88;;;7.30;99.90;;;;;;4980979;28;20103;-88
2022/01/04 09:23:51;;;;;;;14.52;4.40;;;7.10;99.90;;;;;;4961243;28;20129;-88
2022/01/04 09:26:23;;;;;;;14.27;3.72;;;7.00;99.90;;;;;;4981751;28;20053;-85
2022/01/04 09:28:49;;;;;;;17.52;3.97;;;6.90;99.90;;;;;;4963857;28;20374;-87
2022/01/04 09:31:16;;;;;;;13.60;3.00;;;6.90;99.90;;;;;;4969254;28;20397;-86
2022/01/04 09:33:42;;;;;;;12.27;3.45;;;6.80;99.90;;;;;;4973790;28;20038;-86
2022/01/04 09:36:08;;;;;;;16.45;3.40;;;6.80;99.90;;;;;;4965086;28;20056;-86
2022/01/04 09:38:34;;;;;;;20.17;3.83;;;6.70;99.90;;;;;;4971251;28;20050;-87
2022/01/04 09:41:00;;;;;;;15.65;4.03;;;6.70;99.90;;;;;;4977183;28;20041;-86
2022/01/04 09:43:26;;;;;;;21.30;4.10;;;6.70;99.90;;;;;;4973165;28;20560;-85
2022/01/04 09:45:53;;;;;;;26.85;4.38;;;6.70;99.90;;;;;;4976711;28;20042;-88
2022/01/04 09:48:19;;;;;;;20.08;4.55;;;6.70;99.90;;;;;;4992241;28;20633;-87
2022/01/04 09:50:47;;;;;;;15.60;3.67;;;6.80;99.90;;;;;;4963614;28;20101;-85
2022/01/04 09:53:21;;;;;;;22.85;4.75;;;6.80;99.90;;;;;;4982217;28;20041;-86
2022/01/04 09:55:49;;;;;;;24.10;4.85;;;6.80;99.90;;;;;;4997213;28;20132;-87
2022/01/04 09:58:18;;;;;;;19.65;4.35;;;6.80;99.90;;;;;;4975070;28;20057;-86
2022/01/04 10:00:43;;;;;;;27.30;4.88;;;6.90;99.90;;;;;;4964649;28;20062;-86
2022/01/04 10:03:16;;;;;;;20.33;5.05;;;6.90;99.90;;;;;;4979428;28;20095;-85
2022/01/04 10:05:42;;;;;;;33.60;5.90;;;6.90;99.90;;;;;;4995661;28;21544;-86
2022/01/04 10:08:09;;;;;;;40.88;6.43;;;7.00;99.90;;;;;;4959189;28;20046;-85
2022/01/04 10:10:36;;;;;;;29.50;5.63;;;7.00;99.90;;;;;;4975399;28;20210;-86
2022/01/04 10:13:05;;;;;;;38.63;6.95;;;7.00;99.90;;;;;;4962499;28;20048;-86
2022/01/04 10:15:46;;;;;;;34.70;5.82;;;7.10;99.90;;;;;;4981523;28;20405;-86
2022/01/04 10:18:16;;;;;;;36.97;6.10;;;7.10;99.90;;;;;;4979624;28;20046;-86
2022/01/04 10:20:47;;;;;;;25.00;5.45;;;7.10;99.90;;;;;;4995720;28;20037;-86
2022/01/04 10:23:25;;;;;;;28.52;5.97;;;7.10;99.90;;;;;;4974517;28;20072;-86
2022/01/04 10:26:00;;;;;;;21.95;5.20;;;7.10;99.90;;;;;;5000218;28;20048;-87
2022/01/04 10:28:40;;;;;;;28.60;4.70;;;7.10;99.90;;;;;;4996678;28;20414;-86
2022/01/04 10:31:12;;;;;;;19.20;4.40;;;7.00;99.90;;;;;;5003493;28;20125;-86
2022/01/04 10:33:38;;;;;;;21.15;3.75;;;7.00;99.90;;;;;;5018193;28;20076;-85
2022/01/04 10:36:12;;;;;;;13.15;2.63;;;7.00;99.90;;;;;;4997580;28;20577;-86
2022/01/04 10:38:43;;;;;;;10.35;2.13;;;7.00;99.90;;;;;;4990954;28;20042;-83
2022/01/04 10:41:19;;;;;;;7.82;1.40;;;6.90;99.90;;;;;;4988318;28;20029;-85
2022/01/04 10:44:17;;;;;;;6.68;1.10;;;6.80;99.90;;;;;;4988762;28;20037;-85
2022/01/04 10:46:44;;;;;;;7.85;1.25;;;6.80;99.90;;;;;;4957344;28;20076;-87
2022/01/04 10:49:32;;;;;;;11.02;1.30;;;6.70;99.90;;;;;;4980363;28;20574;-86
2022/01/04 10:52:09;;;;;;;8.70;1.42;;;6.60;99.90;;;;;;4985960;28;20042;-86
2022/01/04 10:54:35;;;;;;;6.55;1.20;;;6.60;99.90;;;;;;4982123;28;20526;-87
2022/01/04 10:57:09;;;;;;;8.50;1.73;;;6.50;99.90;;;;;;5001586;28;20497;-85
2022/01/04 10:59:35;;;;;;;8.13;1.50;;;6.50;99.90;;;;;;5004225;28;20500;-85
2022/01/04 11:02:02;;;;;;;12.45;1.75;;;6.50;99.90;;;;;;4961676;28;20048;-86
2022/01/04 11:04:28;;;;;;;7.32;1.30;;;6.50;99.90;;;;;;4995756;28;20084;-85
2022/01/04 11:06:59;;;;;;;8.30;1.52;;;6.50;99.90;;;;;;4994390;28;20033;-85
2022/01/04 11:09:24;;;;;;;9.68;1.98;;;6.50;99.90;;;;;;4971717;28;20049;-85
2022/01/04 11:11:50;;;;;;;4.38;1.10;;;6.50;99.90;;;;;;4988757;23;20049;-85
2022/01/04 11:14:16;;;;;;;14.13;1.33;;;6.40;99.90;;;;;;4972409;28;20041;-83
2022/01/04 11:16:42;;;;;;;10.63;1.50;;;6.40;99.90;;;;;;4933433;28;20035;-85
2022/01/04 11:19:09;;;;;;;7.70;1.70;;;6.30;99.90;;;;;;4963286;28;20047;-86
2022/01/04 11:21:40;;;;;;;7.57;1.67;;;6.30;99.90;;;;;;4963472;28;20105;-85
2022/01/04 11:24:08;;;;;;;11.98;2.00;;;6.30;99.90;;;;;;4958172;28;20674;-85
2022/01/04 11:26:38;;;;;;;10.23;2.00;;;6.30;99.90;;;;;;4928374;28;20074;-85
2022/01/04 11:29:04;;;;;;;8.13;1.60;;;6.30;99.90;;;;;;4935083;28;20051;-85
2022/01/04 11:31:53;;;;;;;6.15;2.10;;;6.30;99.90;;;;;;4929698;28;20042;-84
2022/01/04 11:34:51;;;;;;;7.10;1.92;;;6.20;99.90;;;;;;4938500;28;20528;-84
2022/01/04 11:37:18;;;;;;;5.65;1.92;;;6.20;99.90;;;;;;4924513;28;20065;-85
2022/01/04 11:39:44;;;;;;;8.48;1.95;;;6.10;99.90;;;;;;4913058;28;20038;-86
2022/01/04 11:42:31;;;;;;;7.18;1.85;;;6.10;99.90;;;;;;4915001;28;20233;-85
2022/01/04 11:45:00;;;;;;;6.72;1.00;;;6.10;99.90;;;;;;4954996;28;20182;-86
2022/01/04 11:47:35;;;;;;;2.13;1.08;;;6.00;99.90;;;;;;4951336;28;20062;-88
2022/01/04 11:50:24;;;;;;;5.93;1.27;;;6.00;99.90;;;;;;4942904;28;20043;-87
2022/01/04 11:53:09;;;;;;;4.68;0.80;;;6.00;99.90;;;;;;4961812;28;20046;-87
2022/01/04 12:01:04;;;;;;;9.20;1.30;;;6.00;99.90;;;;;;5007728;28;20054;-86
2022/01/04 12:09:30;;;;;;;7.15;1.20;;;5.90;99.90;;;;;;4984986;28;20504;-86
2022/01/04 12:12:36;;;;;;;6.38;1.08;;;5.90;99.90;;;;;;4944472;28;20106;-86
2022/01/04 12:15:42;;;;;;;7.15;1.52;;;5.90;99.90;;;;;;4958886;28;20150;-86
2022/01/04 12:18:37;;;;;;;6.35;1.42;;;5.90;99.90;;;;;;4945261;28;20358;-85
2022/01/04 12:21:56;;;;;;;5.15;0.98;;;5.90;99.90;;;;;;4941647;28;20054;-86
2022/01/04 12:24:26;;;;;;;5.45;1.00;;;6.00;99.90;;;;;;4936506;28;20591;-83
2022/01/04 12:27:11;;;;;;;5.30;0.70;;;5.80;99.90;;;;;;4942075;28;20125;-85
2022/01/04 12:29:40;;;;;;;7.32;1.15;;;5.70;99.90;;;;;;4948846;28;20121;-84
2022/01/04 12:32:18;;;;;;;7.63;0.70;;;5.60;99.90;;;;;;4941562;28;20043;-86
2022/01/04 12:35:01;;;;;;;5.68;0.90;;;5.50;99.90;;;;;;4949498;28;20042;-86
2022/01/04 12:37:26;;;;;;;12.35;0.70;;;5.40;99.90;;;;;;4945806;28;20070;-85
2022/01/04 12:39:56;;;;;;;4.47;0.47;;;5.30;99.90;;;;;;4923792;28;20133;-85
2022/01/04 12:42:22;;;;;;;7.25;1.00;;;5.30;99.90;;;;;;4961595;28;20050;-85
2022/01/04 12:44:55;;;;;;;5.45;0.80;;;5.30;99.90;;;;;;4927431;28;20031;-86
2022/01/04 12:47:27;;;;;;;6.75;0.70;;;5.30;99.90;;;;;;4944258;28;20038;-87
2022/01/04 12:50:00;;;;;;;2.33;0.50;;;5.30;99.90;;;;;;4937650;28;20098;-84
2022/01/04 12:52:27;;;;;;;5.40;0.95;;;5.30;99.90;;;;;;4926833;28;20057;-86
2022/01/04 12:59:15;;;;;;;6.72;0.80;;;5.40;99.90;;;;;;4946185;28;20057;-84
2022/01/04 13:02:14;;;;;;;9.15;0.80;;;5.50;99.90;;;;;;5000491;28;20133;-84
2022/01/04 13:05:05;;;;;;;7.35;1.08;;;5.60;99.90;;;;;;5010818;28;20106;-85
2022/01/04 13:07:39;;;;;;;7.03;0.82;;;5.70;99.90;;;;;;5006285;28;20052;-83
2022/01/04 13:10:49;;;;;;;9.68;1.00;;;5.80;99.90;;;;;;5007031;28;20045;-84
2022/01/04 13:13:24;;;;;;;12.15;1.00;;;5.90;99.90;;;;;;5002119;28;20046;-84
2022/01/04 13:16:13;;;;;;;;;;;5.80;99.90;;;;;;5000770;28;20617;-84
2022/01/04 13:18:51;;;;;;;12.45;0.95;;;5.80;99.90;;;;;;5000688;28;19925;-83
2022/01/04 13:21:51;;;;;;;8.38;0.90;;;5.80;99.90;;;;;;4999457;28;20386;-85
2022/01/04 13:24:47;;;;;;;4.63;0.90;;;5.80;99.90;;;;;;4994238;28;20044;-84